Rechercher aéroport 
image banner adimage banner ad
image banner ad

EKTB - Torshavn/Bodanes

Situé à Torshavn, Faroe Islands

ICAO - EKTB, IATA -

Données fournies par Airmate  

Information générale

Coordonnées: N62°1'18" W6°45'27"
Élévation : 68 feet MSL.
Variation magnétique : -8.2° East
Voir autres Aéroports à (unassigned)

Données opérationnelles

Accessible au public
Heure actuelle UTC:
Heure actuelle locale:
Météo à : EKVG - Vagar ( 27 km )
METAR: EKVG 182320Z AUTO 34003KT 9999 NCD 01/M01 Q0994
TAF: TAF EKVG 181420Z 1815/1821 35005KT 9999 SCT020 BKN030 PROB40 TEMPO 1815/1821 4000 SHRASN BKN012TCU
Voir NOTAMs / SUP AIP / TFR affectant cet aéroport [VIEW]
Fréquences de communication: [VIEW]

Pistes:

Coordonnées de l'aéroport

Adresse: Torshavn Faroe Islands

Vue satellite de EKTB